Kings Canyon National Pk, California
Current Conditions -  °F | °C
As of 11:56 PM on Saturday 20 Dec 2014 (Local Time) from KBIH Reporting Station
Clear Clear  
Wind Chill: 30°   Ceiling: Unl
Heat Index: 30°   Visibility: 10mi
Dew Point: 26°   Wind: 0mph
Humidity: 85%   Direction: NA
Pressure: 30.22"   Gusts: NA
Location:  36.7872°N, 118.66°W
Report Text: KBIH 210756Z AUTO 00000KT 10SM CLR M01/M03 A3022 RMK AO2 SLP229 T10111033 401061039
Loading
Personal Weather Stations






























Interactive Weather Map New forecast layout! Learn more

10-Day Weather Forecast

Advertisements
Track Severe Weather on mobile